Time;durP1;ratioP1;P1;durP2;ratioP2;P2;SDS_P1;SDS_P2;PMS_P1;PMS_P2;Temp;Humidity;BMP_temperature;BMP_pressure;BME280_temperature;BME280_humidity;BME280_pressure;Samples;Min_cycle;Max_cycle;Signal;HPM_P1;HPM_P2
2022/05/17 00:02:24;;;;;;;4.47;2.78;;;17.20;99.90;;;;;;4997230;28;20528;-73
2022/05/17 00:04:50;;;;;;;4.70;2.67;;;17.30;99.90;;;;;;4999503;28;20508;-73
2022/05/17 00:07:15;;;;;;;5.95;3.40;;;17.60;99.90;;;;;;4987376;28;20038;-74
2022/05/17 00:09:41;;;;;;;5.50;3.08;;;17.50;99.90;;;;;;4996517;28;20057;-73
2022/05/17 00:12:07;;;;;;;5.38;3.13;;;17.20;99.90;;;;;;4989807;28;20077;-74
2022/05/17 00:14:34;;;;;;;5.35;3.22;;;17.20;99.90;;;;;;4997197;28;20485;-73
2022/05/17 00:17:00;;;;;;;6.45;3.15;;;17.30;99.90;;;;;;4995295;28;20026;-74
2022/05/17 00:19:26;;;;;;;5.63;2.92;;;17.00;99.90;;;;;;5006263;28;20152;-73
2022/05/17 00:21:52;;;;;;;7.07;3.40;;;16.90;99.90;;;;;;5001063;28;20105;-73
2022/05/17 00:24:23;;;;;;;6.70;3.05;;;16.90;99.90;;;;;;5015344;28;20084;-73
2022/05/17 00:26:49;;;;;;;5.07;3.22;;;17.00;99.90;;;;;;5012636;28;20029;-73
2022/05/17 00:29:14;;;;;;;4.90;2.83;;;16.70;99.90;;;;;;5013890;28;20503;-73
2022/05/17 00:31:40;;;;;;;6.22;2.70;;;16.50;99.90;;;;;;5012497;28;20404;-73
2022/05/17 00:34:07;;;;;;;4.45;2.75;;;16.50;99.90;;;;;;5014826;28;20030;-73
2022/05/17 00:36:34;;;;;;;7.18;3.28;;;16.40;99.90;;;;;;5010337;28;20484;-73
2022/05/17 00:39:00;;;;;;;7.78;3.05;;;16.30;99.90;;;;;;5014406;28;20050;-73
2022/05/17 00:41:26;;;;;;;6.88;3.40;;;16.30;99.90;;;;;;5011646;28;20092;-73
2022/05/17 00:46:48;;;;;;;4.55;2.78;;;16.20;99.90;;;;;;5010402;28;20056;-73
2022/05/17 00:49:27;;;;;;;4.47;2.53;;;16.20;99.90;;;;;;5015016;28;20034;-73
2022/05/17 00:51:57;;;;;;;6.70;2.75;;;16.50;99.90;;;;;;5007992;28;20034;-73
2022/05/17 00:54:23;;;;;;;7.22;3.08;;;16.30;99.90;;;;;;5015597;28;20034;-73
2022/05/17 00:57:31;;;;;;;6.65;2.88;;;16.30;99.90;;;;;;5004763;28;20499;-73
2022/05/17 01:00:00;;;;;;;4.55;2.90;;;16.30;99.90;;;;;;5010581;28;20049;-73
2022/05/17 01:02:28;;;;;;;5.10;2.42;;;16.20;99.90;;;;;;5010238;28;20036;-73
2022/05/17 01:04:54;;;;;;;4.90;2.72;;;16.30;99.90;;;;;;5006313;28;20054;-73
2022/05/17 01:07:23;;;;;;;5.70;3.05;;;16.20;99.90;;;;;;5009969;28;20044;-73
2022/05/17 01:09:49;;;;;;;6.68;2.40;;;16.30;99.90;;;;;;5014725;28;20362;-73
2022/05/17 01:12:15;;;;;;;4.78;2.75;;;16.30;99.90;;;;;;5004420;28;20186;-73
2022/05/17 01:15:00;;;;;;;3.83;2.35;;;16.30;99.90;;;;;;5032965;28;20116;-73
2022/05/17 01:17:33;;;;;;;3.90;2.25;;;16.20;99.90;;;;;;5023041;28;20076;-73
2022/05/17 01:20:00;;;;;;;5.55;2.58;;;16.40;99.90;;;;;;5010443;28;20069;-73
2022/05/17 01:22:26;;;;;;;4.95;2.58;;;16.40;99.90;;;;;;5007144;28;20393;-73
2022/05/17 01:24:52;;;;;;;5.20;2.30;;;16.40;99.90;;;;;;5014137;28;20026;-73
2022/05/17 01:27:25;;;;;;;5.03;2.95;;;16.30;99.90;;;;;;5013218;28;20037;-73
2022/05/17 01:29:51;;;;;;;4.65;2.67;;;16.20;99.90;;;;;;5014714;28;20489;-73
2022/05/17 01:32:17;;;;;;;5.50;2.85;;;16.60;99.90;;;;;;5007159;28;20061;-73
2022/05/17 01:34:43;;;;;;;5.00;2.72;;;16.60;99.90;;;;;;5011785;28;20119;-73
2022/05/17 01:37:10;;;;;;;5.50;2.88;;;16.50;99.90;;;;;;5010365;28;20037;-73
2022/05/17 01:39:36;;;;;;;5.93;2.55;;;16.30;99.90;;;;;;5016771;28;20045;-73
2022/05/17 01:42:03;;;;;;;4.50;2.65;;;16.20;99.90;;;;;;5014660;28;20037;-73
2022/05/17 01:44:28;;;;;;;4.30;2.80;;;16.40;99.90;;;;;;5016980;28;20029;-73
2022/05/17 01:46:54;;;;;;;4.22;2.40;;;16.40;99.90;;;;;;5033876;28;20044;-74
2022/05/17 01:49:20;;;;;;;7.03;2.83;;;16.60;99.90;;;;;;5023324;28;20084;-73
2022/05/17 01:51:46;;;;;;;5.35;2.58;;;16.50;99.90;;;;;;5007100;28;20045;-73
2022/05/17 01:54:12;;;;;;;7.60;2.90;;;16.30;99.90;;;;;;5010056;28;20033;-73
2022/05/17 01:56:37;;;;;;;5.35;2.83;;;16.20;99.90;;;;;;5006358;28;20065;-73
2022/05/17 01:59:03;;;;;;;3.92;2.28;;;16.30;99.90;;;;;;5011140;28;20041;-73
2022/05/17 02:01:29;;;;;;;5.75;2.60;;;16.40;99.90;;;;;;5008648;28;20042;-73
2022/05/17 02:03:54;;;;;;;4.22;2.25;;;16.50;99.90;;;;;;5011543;28;20038;-73
2022/05/17 02:06:20;;;;;;;5.72;2.92;;;16.70;99.90;;;;;;5012976;28;20034;-73
2022/05/17 02:08:46;;;;;;;5.97;2.78;;;16.50;99.90;;;;;;5007906;28;20046;-73
2022/05/17 02:11:12;;;;;;;8.18;3.15;;;16.40;99.90;;;;;;5010149;28;20393;-73
2022/05/17 02:13:41;;;;;;;6.93;2.83;;;16.40;99.90;;;;;;5010502;28;20037;-73
2022/05/17 02:16:08;;;;;;;5.72;2.17;;;16.10;99.90;;;;;;5014159;28;20430;-73
2022/05/17 02:18:34;;;;;;;5.75;2.88;;;16.10;99.90;;;;;;5011270;28;20527;-73
2022/05/17 02:21:00;;;;;;;5.20;2.58;;;16.10;99.90;;;;;;5012146;28;20480;-73
2022/05/17 02:23:25;;;;;;;5.03;2.03;;;16.10;99.90;;;;;;5010096;28;20026;-74
2022/05/17 02:25:51;;;;;;;6.40;3.17;;;16.10;99.90;;;;;;5004607;28;20041;-73
2022/05/17 02:28:16;;;;;;;5.60;2.47;;;16.10;99.90;;;;;;5010140;28;20034;-73
2022/05/17 02:30:43;;;;;;;7.15;3.10;;;16.00;99.90;;;;;;5004051;28;20033;-73
2022/05/17 02:33:10;;;;;;;5.22;2.50;;;15.90;99.90;;;;;;5011751;28;20396;-73
2022/05/17 02:35:36;;;;;;;5.15;2.88;;;15.90;99.90;;;;;;5011769;28;20846;-73
2022/05/17 02:38:02;;;;;;;5.53;2.92;;;15.70;99.90;;;;;;5013426;28;20053;-73
2022/05/17 02:40:28;;;;;;;5.80;2.45;;;15.90;99.90;;;;;;5022712;28;20044;-73
2022/05/17 02:42:54;;;;;;;6.00;2.88;;;15.90;99.90;;;;;;5012308;28;20506;-73
2022/05/17 02:45:20;;;;;;;4.28;2.35;;;15.90;99.90;;;;;;5006132;28;20030;-73
2022/05/17 02:47:45;;;;;;;5.50;2.70;;;15.60;99.90;;;;;;5007894;28;20023;-73
2022/05/17 02:50:12;;;;;;;6.50;2.65;;;15.70;99.90;;;;;;5010641;28;20041;-73
2022/05/17 02:52:39;;;;;;;6.00;2.63;;;15.90;99.90;;;;;;5005191;28;20030;-73
2022/05/17 02:55:06;;;;;;;6.10;2.45;;;16.10;99.90;;;;;;5005545;28;20493;-74
2022/05/17 02:57:32;;;;;;;14.70;3.40;;;16.30;99.90;;;;;;5011216;28;20028;-73
2022/05/17 02:59:58;;;;;;;4.00;2.80;;;16.20;99.90;;;;;;5011667;28;20050;-73
2022/05/17 03:02:24;;;;;;;5.20;2.90;;;16.20;99.90;;;;;;5007097;28;20040;-73
2022/05/17 03:04:49;;;;;;;8.40;2.97;;;16.20;99.90;;;;;;5002865;28;20060;-73
2022/05/17 03:07:15;;;;;;;7.40;3.42;;;16.40;99.90;;;;;;5002299;28;20962;-72
2022/05/17 03:09:41;;;;;;;5.30;2.90;;;16.30;99.90;;;;;;5008169;28;20034;-72
2022/05/17 03:12:07;;;;;;;6.88;3.30;;;16.10;99.90;;;;;;4994504;28;20554;-73
2022/05/17 03:14:33;;;;;;;7.65;3.08;;;16.10;99.90;;;;;;4997106;28;20469;-73
2022/05/17 03:16:58;;;;;;;4.80;2.63;;;16.00;99.90;;;;;;5012782;28;20048;-73
2022/05/17 03:19:24;;;;;;;6.65;2.83;;;15.80;99.90;;;;;;4999209;28;20620;-73
2022/05/17 03:21:50;;;;;;;6.75;3.10;;;15.80;99.90;;;;;;5009380;28;20065;-73
2022/05/17 03:24:15;;;;;;;6.20;2.90;;;15.80;99.90;;;;;;5000003;28;20026;-73
2022/05/17 03:26:41;;;;;;;10.07;2.95;;;15.90;99.90;;;;;;4999212;28;20030;-73
2022/05/17 03:29:07;;;;;;;9.38;3.17;;;15.60;99.90;;;;;;4985269;28;21398;-73
2022/05/17 03:31:36;;;;;;;4.95;2.55;;;15.60;99.90;;;;;;4983697;28;20025;-73
2022/05/17 03:34:02;;;;;;;6.10;3.25;;;15.40;99.90;;;;;;4983909;28;20523;-73
2022/05/17 03:36:28;;;;;;;5.63;3.08;;;15.40;99.90;;;;;;4984416;28;20030;-73
2022/05/17 03:38:53;;;;;;;6.55;2.80;;;15.60;99.90;;;;;;4981534;28;20427;-73
2022/05/17 03:41:19;;;;;;;9.55;3.15;;;15.70;99.90;;;;;;4993384;28;20034;-72
2022/05/17 03:43:45;;;;;;;5.13;3.13;;;15.80;99.90;;;;;;4998682;28;20492;-73
2022/05/17 03:46:12;;;;;;;4.43;2.60;;;15.60;99.90;;;;;;5001983;28;20030;-72
2022/05/17 03:48:37;;;;;;;7.20;3.40;;;15.70;99.90;;;;;;5004111;28;20041;-73
2022/05/17 03:51:11;;;;;;;6.88;3.30;;;15.60;99.90;;;;;;4999198;28;20574;-73
2022/05/17 03:53:37;;;;;;;5.18;2.60;;;15.60;99.90;;;;;;4997431;28;20131;-73
2022/05/17 03:56:03;;;;;;;4.10;2.58;;;15.60;99.90;;;;;;5002298;28;20111;-73
2022/05/17 03:58:29;;;;;;;5.90;2.85;;;15.40;99.90;;;;;;5003043;28;20084;-73
2022/05/17 04:00:55;;;;;;;5.15;2.65;;;15.30;99.90;;;;;;4998568;28;20042;-73
2022/05/17 04:03:20;;;;;;;5.82;3.17;;;15.20;99.90;;;;;;5004148;28;20054;-73
2022/05/17 04:05:46;;;;;;;5.97;2.40;;;15.30;99.90;;;;;;4996193;28;20041;-73
2022/05/17 04:08:12;;;;;;;5.40;2.72;;;15.40;99.90;;;;;;5005188;28;20599;-73
2022/05/17 04:10:37;;;;;;;5.38;2.83;;;15.60;99.90;;;;;;4996119;28;20469;-73
2022/05/17 04:13:05;;;;;;;5.00;2.97;;;15.40;99.90;;;;;;4996319;28;20543;-73
2022/05/17 04:15:31;;;;;;;4.80;2.78;;;15.40;99.90;;;;;;4980605;28;20038;-73
2022/05/17 04:17:56;;;;;;;5.00;2.30;;;15.40;99.90;;;;;;4991662;28;20045;-73
2022/05/17 04:20:23;;;;;;;5.13;2.50;;;15.20;99.90;;;;;;4990474;28;20045;-73
2022/05/17 04:22:50;;;;;;;6.38;2.72;;;15.10;99.90;;;;;;4981803;28;20177;-73
2022/05/17 04:25:20;;;;;;;4.78;3.10;;;15.20;99.90;;;;;;4994629;28;20117;-73
2022/05/17 04:27:46;;;;;;;5.32;2.70;;;15.20;99.90;;;;;;5002070;28;20125;-73
2022/05/17 04:30:13;;;;;;;6.35;2.95;;;15.30;99.90;;;;;;5003085;28;20508;-73
2022/05/17 04:32:39;;;;;;;7.03;3.70;;;15.40;99.90;;;;;;5002962;28;20132;-73
2022/05/17 04:35:05;;;;;;;9.70;3.42;;;15.40;99.90;;;;;;4997137;28;20022;-73
2022/05/17 04:37:32;;;;;;;5.85;2.63;;;15.20;99.90;;;;;;5001540;28;20041;-73
2022/05/17 04:39:58;;;;;;;6.80;3.30;;;15.10;99.90;;;;;;4999903;28;20050;-73
2022/05/17 04:42:23;;;;;;;5.63;3.38;;;15.20;99.90;;;;;;5001766;28;20088;-73
2022/05/17 04:44:50;;;;;;;5.63;3.33;;;15.20;99.90;;;;;;4997928;28;20040;-72
2022/05/17 04:47:16;;;;;;;5.63;3.10;;;15.20;99.90;;;;;;5004188;28;20048;-73
2022/05/17 04:49:41;;;;;;;5.22;3.08;;;15.10;99.90;;;;;;5002539;28;20030;-73
2022/05/17 04:52:07;;;;;;;6.88;2.40;;;15.10;99.90;;;;;;5014179;28;20049;-73
2022/05/17 04:54:33;;;;;;;5.68;3.08;;;14.90;99.90;;;;;;4998224;28;20141;-73
2022/05/17 04:56:59;;;;;;;5.20;2.75;;;15.00;99.90;;;;;;4997209;28;20037;-73
2022/05/17 04:59:24;;;;;;;6.30;2.90;;;14.80;99.90;;;;;;4997749;28;20069;-73
2022/05/17 05:01:50;;;;;;;6.57;3.22;;;15.00;99.90;;;;;;4999062;28;20046;-73
2022/05/17 05:04:17;;;;;;;4.18;2.30;;;15.10;99.90;;;;;;5004219;28;20647;-73
2022/05/17 05:06:43;;;;;;;4.93;2.90;;;15.20;99.90;;;;;;5005857;28;20092;-72
2022/05/17 05:09:10;;;;;;;4.88;2.72;;;15.00;99.90;;;;;;5007574;28;20068;-73
2022/05/17 05:11:36;;;;;;;5.55;3.00;;;15.00;99.90;;;;;;5000332;28;20022;-72
2022/05/17 05:14:02;;;;;;;9.23;3.25;;;15.10;99.90;;;;;;5005682;28;20047;-73
2022/05/17 05:16:27;;;;;;;4.97;2.92;;;14.80;99.90;;;;;;4997200;28;20022;-73
2022/05/17 05:18:53;;;;;;;6.15;3.03;;;14.90;99.90;;;;;;4995161;28;20104;-73
2022/05/17 05:21:19;;;;;;;7.20;3.22;;;15.10;99.90;;;;;;4999109;28;20656;-72
2022/05/17 05:23:45;;;;;;;6.40;3.50;;;15.20;99.90;;;;;;5007290;28;20037;-73
2022/05/17 05:26:12;;;;;;;5.82;2.78;;;15.30;99.90;;;;;;4995547;28;20167;-73
2022/05/17 05:28:39;;;;;;;6.22;3.13;;;15.40;99.90;;;;;;5006422;28;20026;-73
2022/05/17 05:31:05;;;;;;;3.97;2.30;;;15.40;99.90;;;;;;4997496;28;20109;-73
2022/05/17 05:33:34;;;;;;;5.85;3.10;;;15.50;99.90;;;;;;5007336;28;20164;-72
2022/05/17 05:36:00;;;;;;;5.70;2.40;;;15.70;99.90;;;;;;4999456;28;20034;-73
2022/05/17 05:38:26;;;;;;;7.55;3.17;;;15.60;99.90;;;;;;5005490;28;20026;-72
2022/05/17 05:40:52;;;;;;;6.25;2.90;;;15.70;99.90;;;;;;5002264;28;20088;-72
2022/05/17 05:43:18;;;;;;;4.68;2.85;;;15.70;99.90;;;;;;5005498;28;20460;-72
2022/05/17 05:45:44;;;;;;;5.35;3.33;;;15.70;99.90;;;;;;5006760;28;20079;-72
2022/05/17 05:48:10;;;;;;;7.18;2.70;;;15.70;99.90;;;;;;5004682;28;20042;-73
2022/05/17 05:50:36;;;;;;;4.55;2.53;;;15.70;99.90;;;;;;5004376;28;20099;-73
2022/05/17 05:53:05;;;;;;;6.43;2.60;;;15.70;99.90;;;;;;5000335;28;20389;-73
2022/05/17 05:55:32;;;;;;;5.70;3.22;;;15.90;99.90;;;;;;5004302;28;20069;-73
2022/05/17 05:57:58;;;;;;;5.72;3.03;;;16.00;99.90;;;;;;5003045;28;20030;-73
2022/05/17 06:00:24;;;;;;;6.28;2.65;;;16.00;99.90;;;;;;5001921;28;20041;-73
2022/05/17 06:02:51;;;;;;;6.10;3.03;;;16.10;99.90;;;;;;5003249;28;20038;-73
2022/05/17 06:05:18;;;;;;;5.13;2.67;;;16.10;99.90;;;;;;4997792;28;20046;-73
2022/05/17 06:07:44;;;;;;;6.68;3.38;;;16.10;99.90;;;;;;4995475;28;20137;-73
2022/05/17 06:10:11;;;;;;;8.68;2.88;;;16.30;99.90;;;;;;4990475;28;20033;-72
2022/05/17 06:12:37;;;;;;;5.32;2.92;;;16.40;99.90;;;;;;5005349;28;20764;-74
2022/05/17 06:15:04;;;;;;;6.55;2.60;;;16.50;99.90;;;;;;5000814;28;20022;-72
2022/05/17 06:17:29;;;;;;;4.80;2.80;;;16.50;99.90;;;;;;4997096;28;20041;-72
2022/05/17 06:19:56;;;;;;;6.40;2.50;;;16.70;99.90;;;;;;5002628;28;20057;-72
2022/05/17 06:22:23;;;;;;;6.38;3.03;;;16.70;99.90;;;;;;5000811;28;20072;-72
2022/05/17 06:24:49;;;;;;;5.32;2.70;;;16.80;99.90;;;;;;4994674;28;20176;-72
2022/05/17 06:27:14;;;;;;;4.93;2.65;;;16.90;99.90;;;;;;4999731;28;20494;-71
2022/05/17 06:29:40;;;;;;;4.88;3.00;;;17.00;99.90;;;;;;4998999;28;20035;-71
2022/05/17 06:32:11;;;;;;;5.35;3.58;;;17.00;99.90;;;;;;5000548;28;20038;-71
2022/05/17 06:34:38;;;;;;;5.68;2.47;;;17.10;99.90;;;;;;5002794;28;20029;-72
2022/05/17 06:37:04;;;;;;;5.90;2.60;;;17.20;99.90;;;;;;4999785;28;20034;-72
2022/05/17 06:39:30;;;;;;;6.30;2.75;;;17.30;99.90;;;;;;5005338;28;20042;-71
2022/05/17 06:41:56;;;;;;;4.43;2.60;;;17.30;99.90;;;;;;4992792;28;20084;-72
2022/05/17 06:44:21;;;;;;;5.72;2.67;;;17.50;99.90;;;;;;4995169;28;20037;-72
2022/05/17 06:46:47;;;;;;;6.10;2.70;;;17.70;99.90;;;;;;4999805;28;20106;-72
2022/05/17 06:49:13;;;;;;;8.45;2.40;;;17.80;99.90;;;;;;5003621;28;20050;-72
2022/05/17 06:51:40;;;;;;;7.53;2.80;;;18.00;99.90;;;;;;4999370;28;20034;-72
2022/05/17 06:54:06;;;;;;;4.25;2.30;;;18.20;99.90;;;;;;4997226;28;20464;-72
2022/05/17 06:56:33;;;;;;;4.30;2.20;;;18.50;99.90;;;;;;5004592;28;20036;-72
2022/05/17 06:58:59;;;;;;;4.90;2.30;;;18.70;99.90;;;;;;4998927;28;20061;-72
2022/05/17 07:01:25;;;;;;;5.65;2.67;;;18.90;99.90;;;;;;4995511;28;20029;-72
2022/05/17 07:03:51;;;;;;;4.55;2.30;;;19.10;99.90;;;;;;4998151;28;20915;-72
2022/05/17 07:06:17;;;;;;;3.90;2.20;;;19.30;99.90;;;;;;4995596;28;20416;-72
2022/05/17 07:08:43;;;;;;;5.70;2.85;;;19.60;99.90;;;;;;4989555;28;20117;-71
2022/05/17 07:13:54;;;;;;;;;;;20.00;99.90;;;;;;5003352;28;20077;-72
2022/05/17 07:16:21;;;;;;;5.97;2.25;;;20.50;99.90;;;;;;4997050;28;19909;-72
2022/05/17 07:18:47;;;;;;;5.50;2.20;;;21.00;99.90;;;;;;4993090;28;20064;-73
2022/05/17 07:21:13;;;;;;;3.03;1.73;;;22.10;99.20;;;;;;5012074;28;20029;-72
2022/05/17 07:23:40;;;;;;;10.15;3.50;;;23.30;97.10;;;;;;5006326;28;20038;-72
2022/05/17 07:26:08;;;;;;;4.85;2.47;;;24.20;95.40;;;;;;4994315;28;20596;-72
2022/05/17 07:28:43;;;;;;;4.63;1.92;;;25.10;92.90;;;;;;4997253;28;20088;-72
2022/05/17 07:31:09;;;;;;;3.55;2.13;;;26.70;92.40;;;;;;4995246;28;20030;-72
2022/05/17 07:33:36;;;;;;;4.18;2.28;;;27.10;91.30;;;;;;5003630;28;20208;-72
2022/05/17 07:36:03;;;;;;;5.45;2.33;;;26.70;91.40;;;;;;5007979;28;20037;-72
2022/05/17 07:38:28;;;;;;;4.18;2.20;;;26.60;91.30;;;;;;5005309;28;20049;-72
2022/05/17 07:40:54;;;;;;;3.78;2.08;;;26.80;90.80;;;;;;4990720;28;20137;-72
2022/05/17 07:43:20;;;;;;;4.55;2.65;;;27.00;91.70;;;;;;4982681;28;20096;-72
2022/05/17 07:45:49;;;;;;;3.85;2.20;;;27.10;90.40;;;;;;4981996;28;20029;-72
2022/05/17 07:48:17;;;;;;;6.78;2.22;;;27.00;90.40;;;;;;4983182;28;20029;-73
2022/05/17 07:50:42;;;;;;;4.50;2.22;;;27.20;90.30;;;;;;4995486;28;20507;-72
2022/05/17 07:53:10;;;;;;;5.85;2.30;;;26.80;88.90;;;;;;4996752;28;20035;-72
2022/05/17 07:55:38;;;;;;;4.22;2.63;;;26.90;88.80;;;;;;4992871;28;20069;-72
2022/05/17 07:58:05;;;;;;;3.50;1.75;;;25.80;90.40;;;;;;4998395;28;20030;-73
2022/05/17 08:00:32;;;;;;;5.22;2.30;;;22.90;93.50;;;;;;4988281;28;21591;-72
2022/05/17 08:02:59;;;;;;;5.40;1.92;;;23.80;93.60;;;;;;4991522;28;20035;-72
2022/05/17 08:05:25;;;;;;;7.00;2.25;;;24.50;93.50;;;;;;4995914;28;20050;-72
2022/05/17 08:07:52;;;;;;;7.25;3.03;;;24.40;93.20;;;;;;4995678;28;20537;-72
2022/05/17 08:10:18;;;;;;;5.35;3.53;;;24.40;93.40;;;;;;4978914;28;20041;-72
2022/05/17 08:12:44;;;;;;;6.65;3.08;;;24.30;94.10;;;;;;4985900;28;20105;-72
2022/05/17 08:15:11;;;;;;;6.65;2.95;;;23.60;94.50;;;;;;4991261;28;20153;-72
2022/05/17 08:17:37;;;;;;;4.85;2.45;;;23.60;94.50;;;;;;4997180;28;20038;-72
2022/05/17 08:20:07;;;;;;;3.58;2.00;;;23.20;93.90;;;;;;4995735;28;20069;-74
2022/05/17 08:22:33;;;;;;;4.03;2.40;;;23.50;94.80;;;;;;5002423;28;20049;-72
2022/05/17 08:27:44;;;;;;;5.25;2.08;;;23.20;94.40;;;;;;4999401;28;20060;-72
2022/05/17 08:30:14;;;;;;;5.05;2.50;;;23.10;93.50;;;;;;5001334;28;20065;-71
2022/05/17 08:35:55;;;;;;;4.85;2.50;;;22.70;96.00;;;;;;5001285;28;20116;-73
2022/05/17 08:38:23;;;;;;;11.93;2.45;;;22.60;96.10;;;;;;4997984;28;20050;-73
2022/05/17 08:40:58;;;;;;;4.80;2.75;;;22.60;95.90;;;;;;5002511;28;20038;-72
2022/05/17 08:43:47;;;;;;;5.40;2.33;;;22.70;96.80;;;;;;4994300;28;20033;-73
2022/05/17 08:46:31;;;;;;;7.25;2.95;;;22.30;95.90;;;;;;5006583;28;20125;-72
2022/05/17 08:49:18;;;;;;;6.78;2.67;;;22.40;96.40;;;;;;4992372;28;20034;-72
2022/05/17 08:51:46;;;;;;;7.47;3.05;;;22.50;96.10;;;;;;5003077;28;20510;-73
2022/05/17 08:54:47;;;;;;;7.85;2.60;;;22.50;96.10;;;;;;4995702;28;20619;-72
2022/05/17 08:57:26;;;;;;;4.70;2.42;;;22.70;96.20;;;;;;5003762;28;20099;-77
2022/05/17 08:59:52;;;;;;;4.35;2.30;;;22.60;96.70;;;;;;4994974;28;20041;-72
2022/05/17 09:02:38;;;;;;;8.38;2.92;;;22.70;95.80;;;;;;4996816;28;20041;-72
2022/05/17 09:05:33;;;;;;;6.97;2.80;;;22.90;96.00;;;;;;4995112;28;20428;-71
2022/05/17 09:08:00;;;;;;;5.90;2.67;;;23.10;95.80;;;;;;4997974;28;20032;-73
2022/05/17 09:10:56;;;;;;;13.88;2.70;;;23.00;95.90;;;;;;4976506;28;20034;-72
2022/05/17 09:13:33;;;;;;;4.43;2.13;;;23.20;95.90;;;;;;4980413;28;20050;-72
2022/05/17 09:16:00;;;;;;;8.07;2.33;;;23.30;95.70;;;;;;5004797;28;20029;-72
2022/05/17 09:18:30;;;;;;;3.92;2.35;;;23.30;96.00;;;;;;4993438;28;20066;-71
2022/05/17 09:20:55;;;;;;;3.63;1.98;;;23.60;96.40;;;;;;4995017;28;20044;-71
2022/05/17 09:23:21;;;;;;;4.60;2.38;;;23.70;95.30;;;;;;5001193;28;20034;-72
2022/05/17 09:26:00;;;;;;;7.13;2.75;;;23.80;94.30;;;;;;4996810;28;20033;-72
2022/05/17 09:28:50;;;;;;;3.85;2.17;;;24.00;94.80;;;;;;4999574;28;20052;-72
2022/05/17 09:31:33;;;;;;;5.32;2.22;;;24.30;94.80;;;;;;5006196;28;20037;-71
2022/05/17 09:34:02;;;;;;;6.88;2.47;;;24.30;93.90;;;;;;5004744;28;20058;-71
2022/05/17 09:36:44;;;;;;;4.78;2.45;;;24.40;93.60;;;;;;4988008;28;20026;-73
2022/05/17 09:39:11;;;;;;;4.53;2.60;;;24.30;94.00;;;;;;4989276;28;20387;-71
2022/05/17 09:41:39;;;;;;;3.90;2.08;;;24.60;93.70;;;;;;4993279;28;20098;-71
2022/05/17 09:44:15;;;;;;;6.07;2.10;;;24.50;93.40;;;;;;4995583;28;20084;-71
2022/05/17 09:46:47;;;;;;;3.95;2.15;;;24.70;93.40;;;;;;4988322;28;20037;-72
2022/05/17 09:52:38;;;;;;;4.13;1.85;;;25.20;93.00;;;;;;5018703;28;20044;-71
2022/05/17 09:55:07;;;;;;;9.35;2.10;;;25.40;92.10;;;;;;5010642;28;20066;-71
2022/05/17 09:57:33;;;;;;;5.00;2.03;;;25.80;93.10;;;;;;5004878;28;20034;-71
2022/05/17 10:00:12;;;;;;;4.35;1.88;;;26.10;92.20;;;;;;5008996;28;20040;-72
2022/05/17 10:02:53;;;;;;;4.65;1.90;;;26.10;91.70;;;;;;4991000;28;20095;-71
2022/05/17 10:05:27;;;;;;;5.78;2.10;;;26.00;91.80;;;;;;4990579;28;20631;-72
2022/05/17 10:08:05;;;;;;;5.18;1.52;;;25.90;91.80;;;;;;4986369;28;20574;-73
2022/05/17 10:10:38;;;;;;;3.50;1.50;;;25.40;90.10;;;;;;5000605;28;20034;-71
2022/05/17 10:13:17;;;;;;;5.97;1.90;;;25.70;90.40;;;;;;4997122;28;20041;-72
2022/05/17 10:15:48;;;;;;;4.25;1.58;;;25.80;90.50;;;;;;5000776;28;20640;-71
2022/05/17 10:18:29;;;;;;;2.65;1.45;;;25.70;91.60;;;;;;4993968;28;20141;-72
2022/05/17 10:20:59;;;;;;;10.23;2.03;;;25.90;91.40;;;;;;4989279;28;20042;-70
2022/05/17 10:23:40;;;;;;;7.05;1.90;;;25.70;89.90;;;;;;4996124;28;20500;-70
2022/05/17 10:26:11;;;;;;;6.40;1.73;;;25.80;90.90;;;;;;4996464;28;20025;-70
2022/05/17 10:29:09;;;;;;;2.53;1.27;;;25.90;90.40;;;;;;4992331;28;20064;-71
2022/05/17 10:31:41;;;;;;;3.53;1.50;;;26.00;90.20;;;;;;4993816;28;20045;-70
2022/05/17 10:34:46;;;;;;;3.47;1.60;;;25.80;88.90;;;;;;4994859;28;20120;-70
2022/05/17 10:37:21;;;;;;;4.68;2.03;;;25.90;90.60;;;;;;4986151;28;20053;-70
2022/05/17 10:39:55;;;;;;;5.13;1.67;;;26.10;92.00;;;;;;4984709;28;20038;-71
2022/05/17 10:42:21;;;;;;;;;;;26.60;91.10;;;;;;4988739;28;20526;-71
2022/05/17 10:44:53;;;;;;;4.57;1.80;;;26.80;90.60;;;;;;4997124;28;19909;-70
2022/05/17 10:47:37;;;;;;;4.70;1.20;;;26.70;88.80;;;;;;5001828;28;20026;-71
2022/05/17 10:50:18;;;;;;;5.07;1.60;;;26.70;89.10;;;;;;5004751;28;20149;-70
2022/05/17 10:53:04;;;;;;;5.80;1.80;;;26.60;88.30;;;;;;4994940;28;20109;-71
2022/05/17 10:56:03;;;;;;;7.50;1.50;;;26.60;89.20;;;;;;4994934;28;20133;-72
2022/05/17 10:58:34;;;;;;;6.53;1.90;;;26.80;90.50;;;;;;4989826;28;20026;-72
2022/05/17 11:01:19;;;;;;;4.43;2.00;;;26.60;89.20;;;;;;5001753;28;20050;-72
2022/05/17 11:04:09;;;;;;;4.20;1.40;;;26.90;90.30;;;;;;4998037;28;20139;-72
2022/05/17 11:06:55;;;;;;;2.28;1.27;;;26.80;90.50;;;;;;4993376;28;20037;-72
2022/05/17 11:09:59;;;;;;;3.05;1.38;;;27.20;90.00;;;;;;4996195;28;20036;-72
2022/05/17 11:12:29;;;;;;;5.65;1.80;;;27.00;90.00;;;;;;5006389;28;20132;-72
2022/05/17 11:15:00;;;;;;;7.13;1.55;;;27.10;88.70;;;;;;4993018;28;20026;-72
2022/05/17 11:17:29;;;;;;;3.13;1.50;;;26.90;87.80;;;;;;5004513;28;20034;-72
2022/05/17 11:20:04;;;;;;;6.07;1.70;;;26.90;88.00;;;;;;4995833;28;20103;-73
2022/05/17 11:22:51;;;;;;;5.32;1.63;;;27.10;86.80;;;;;;4990362;28;20033;-74
2022/05/17 11:25:36;;;;;;;4.68;1.73;;;27.20;86.80;;;;;;5001370;28;20022;-76
2022/05/17 11:28:21;;;;;;;3.97;1.38;;;27.30;88.50;;;;;;4999110;28;20581;-74
2022/05/17 11:31:00;;;;;;;5.13;1.50;;;27.60;87.40;;;;;;4997026;28;20026;-73
2022/05/17 11:33:41;;;;;;;6.50;1.50;;;27.20;85.10;;;;;;5000930;28;20052;-74
2022/05/17 11:36:30;;;;;;;5.20;1.55;;;27.20;84.40;;;;;;5008653;28;20983;-74
2022/05/17 11:38:55;;;;;;;3.97;1.20;;;27.80;87.70;;;;;;4994056;28;20033;-74
2022/05/17 11:41:42;;;;;;;3.17;1.20;;;27.90;86.30;;;;;;4982902;28;20030;-74
2022/05/17 11:44:14;;;;;;;5.20;1.98;;;28.00;85.70;;;;;;4988736;28;20058;-75
2022/05/17 11:46:47;;;;;;;6.45;1.60;;;27.80;82.00;;;;;;4976964;28;20055;-74
2022/05/17 11:49:12;;;;;;;4.37;1.67;;;27.50;86.10;;;;;;4970626;28;20038;-73
2022/05/17 11:51:59;;;;;;;10.70;1.98;;;27.60;82.00;;;;;;4985810;28;20026;-73
2022/05/17 11:54:51;;;;;;;3.08;1.58;;;28.00;85.80;;;;;;4979559;28;20038;-73
2022/05/17 11:57:23;;;;;;;3.80;1.33;;;28.20;82.60;;;;;;4987603;28;20034;-74
2022/05/17 12:00:04;;;;;;;3.10;1.20;;;28.30;85.00;;;;;;4995087;28;20087;-73
2022/05/17 12:02:53;;;;;;;3.30;1.50;;;28.10;81.30;;;;;;4992499;28;20037;-73
2022/05/17 12:05:37;;;;;;;3.22;1.50;;;28.00;83.40;;;;;;4997840;28;20050;-73
2022/05/17 12:08:28;;;;;;;4.10;1.38;;;28.30;81.60;;;;;;4994142;28;20034;-75
2022/05/17 12:11:48;;;;;;;3.42;1.02;;;28.00;81.10;;;;;;4974859;28;20034;-74
2022/05/17 12:14:26;;;;;;;4.28;1.45;;;28.20;81.10;;;;;;4991612;28;20034;-73
2022/05/17 12:16:59;;;;;;;4.53;1.50;;;28.10;80.10;;;;;;4995323;28;20377;-75
2022/05/17 12:19:45;;;;;;;2.40;1.20;;;28.30;81.50;;;;;;4991695;28;20034;-74
2022/05/17 12:22:11;;;;;;;5.70;1.45;;;28.70;80.70;;;;;;4992179;28;20642;-74
2022/05/17 12:25:04;;;;;;;4.50;1.52;;;28.80;80.80;;;;;;4989466;28;20141;-74
2022/05/17 12:27:30;;;;;;;3.23;1.37;;;29.10;78.00;;;;;;4989092;28;20077;-74
2022/05/17 12:31:06;;;;;;;7.03;1.10;;;29.00;78.60;;;;;;4986175;28;20030;-74
2022/05/17 12:33:15;;;;;;;3.65;1.40;;;29.00;78.20;;;;;;4988763;28;20110;-74
2022/05/17 12:35:41;;;;;;;3.35;0.95;;;29.20;80.60;;;;;;4983426;28;20035;-74
2022/05/17 12:43:02;;;;;;;4.25;1.30;;;29.10;76.10;;;;;;4986810;28;20048;-75
2022/05/17 12:43:43;;;;;;;3.33;1.55;;;28.80;75.90;;;;;;5000934;28;20041;-74
2022/05/17 12:46:24;;;;;;;4.70;1.10;;;29.20;76.50;;;;;;4994205;28;20026;-74
2022/05/17 12:48:51;;;;;;;2.88;1.00;;;29.40;76.20;;;;;;4987372;28;20045;-74
2022/05/17 12:51:20;;;;;;;3.97;1.02;;;29.40;76.30;;;;;;4991992;28;20033;-74
2022/05/17 12:53:49;;;;;;;4.80;1.73;;;29.20;74.30;;;;;;4992709;28;20099;-74
2022/05/17 12:56:22;;;;;;;4.45;1.30;;;29.20;75.60;;;;;;4997432;28;20525;-74
2022/05/17 12:58:54;;;;;;;2.95;1.02;;;29.20;72.80;;;;;;4991847;28;20060;-74
2022/05/17 13:01:32;;;;;;;4.07;1.83;;;29.40;75.20;;;;;;4988565;28;20506;-74
2022/05/17 13:04:04;;;;;;;4.28;1.02;;;29.30;72.70;;;;;;4987756;28;20365;-74
2022/05/17 13:06:49;;;;;;;2.70;0.82;;;29.30;72.80;;;;;;4995236;28;20042;-73
2022/05/17 13:09:21;;;;;;;3.70;1.00;;;29.40;73.40;;;;;;4999676;28;20501;-74
2022/05/17 13:11:48;;;;;;;2.10;0.90;;;29.70;74.60;;;;;;4990792;28;20038;-74
2022/05/17 13:14:27;;;;;;;5.28;0.98;;;29.90;72.40;;;;;;4994815;28;20037;-74
2022/05/17 13:17:02;;;;;;;2.97;1.08;;;29.90;72.80;;;;;;4992848;28;20056;-74
2022/05/17 13:19:28;;;;;;;2.97;1.08;;;29.90;74.00;;;;;;4994450;28;20039;-74
2022/05/17 13:21:55;;;;;;;4.30;0.90;;;29.80;71.20;;;;;;5002575;28;20485;-74
2022/05/17 13:24:43;;;;;;;2.85;1.10;;;29.80;70.50;;;;;;4998677;28;20035;-74